createdAt,value
2018-03-26T00:00:32.305Z,0.00
2018-03-26T00:01:32.336Z,0.00
2018-03-26T00:02:32.228Z,0.00
2018-03-26T00:03:32.256Z,0.00
2018-03-26T00:04:32.391Z,0.00
2018-03-26T00:05:32.443Z,0.00
2018-03-26T00:06:32.429Z,0.00
2018-03-26T00:07:32.323Z,0.00
2018-03-26T00:08:32.349Z,0.00
2018-03-26T00:09:32.360Z,0.00
2018-03-26T00:10:32.481Z,0.00
2018-03-26T00:11:32.524Z,0.00
2018-03-26T00:12:32.540Z,0.00
2018-03-26T00:13:32.447Z,0.00
2018-03-26T00:14:32.578Z,0.00
2018-03-26T00:15:32.620Z,0.00
2018-03-26T00:16:32.502Z,0.00
2018-03-26T00:17:32.517Z,0.00
2018-03-26T00:18:32.526Z,0.00
2018-03-26T00:19:32.555Z,0.00
2018-03-26T00:20:32.716Z,0.00
2018-03-26T00:21:32.589Z,0.00
2018-03-26T00:22:32.603Z,0.00
2018-03-26T00:23:32.627Z,0.00
2018-03-26T00:24:32.637Z,0.00
2018-03-26T00:25:32.782Z,0.00
2018-03-26T00:26:32.951Z,0.00
2018-03-26T00:27:32.695Z,0.00
2018-03-26T00:28:32.838Z,0.00
2018-03-26T00:29:32.859Z,0.00
2018-03-26T00:30:32.745Z,0.00
2018-03-26T00:31:32.779Z,0.00
2018-03-26T00:32:32.895Z,0.00
2018-03-26T00:33:32.935Z,0.00
2018-03-26T00:34:32.950Z,0.00
2018-03-26T00:35:32.841Z,0.00
2018-03-26T00:36:32.867Z,0.00
2018-03-26T00:37:33.029Z,0.00
2018-03-26T00:38:32.896Z,0.00
2018-03-26T00:39:33.045Z,0.00
2018-03-26T00:40:33.062Z,0.00
2018-03-26T00:41:32.964Z,0.00
2018-03-26T00:42:33.246Z,0.00
2018-03-26T00:43:32.990Z,0.00
2018-03-26T00:44:33.133Z,0.00
2018-03-26T00:45:33.157Z,0.00
2018-03-26T00:46:33.046Z,0.00
2018-03-26T00:47:33.170Z,0.00
2018-03-26T00:48:33.207Z,0.00
2018-03-26T00:49:33.106Z,0.00
2018-03-26T00:50:33.131Z,0.00
2018-03-26T00:51:33.144Z,0.00
2018-03-26T00:52:33.316Z,0.00
2018-03-26T00:53:33.181Z,0.00
2018-03-26T00:54:33.205Z,0.00
2018-03-26T00:55:33.335Z,0.00
2018-03-26T00:56:33.361Z,0.00
2018-03-26T00:57:33.449Z,0.00
2018-03-26T00:58:33.259Z,0.00
2018-03-26T00:59:33.291Z,0.00
2018-03-26T01:00:33.302Z,0.00
2018-03-26T01:01:33.328Z,0.00
2018-03-26T01:02:33.565Z,0.00
2018-03-26T01:03:33.357Z,0.00
2018-03-26T01:04:33.382Z,0.00
2018-03-26T01:05:33.391Z,0.00
2018-03-26T01:06:33.411Z,0.00
2018-03-26T01:07:33.655Z,0.00
2018-03-26T01:08:33.576Z,0.00
2018-03-26T01:09:33.473Z,0.00
2018-03-26T01:10:33.488Z,0.00
2018-03-26T01:11:33.630Z,0.00
2018-03-26T01:12:33.672Z,0.00
2018-03-26T01:13:33.549Z,0.00
2018-03-26T01:14:33.571Z,0.00
2018-03-26T01:15:33.704Z,0.00
2018-03-26T01:16:33.719Z,0.00
2018-03-26T01:17:33.611Z,0.00
2018-03-26T01:18:33.956Z,0.00
2018-03-26T01:19:33.662Z,0.00
2018-03-26T01:20:33.796Z,0.00
2018-03-26T01:21:33.685Z,0.00
2018-03-26T01:22:33.712Z,0.00
2018-03-26T01:23:33.874Z,0.00
2018-03-26T01:24:33.867Z,0.00
2018-03-26T01:25:33.758Z,0.00
2018-03-26T01:26:33.784Z,0.00
2018-03-26T01:27:33.796Z,0.00
2018-03-26T01:28:33.970Z,0.00
2018-03-26T01:29:33.958Z,0.00
2018-03-26T01:30:33.863Z,0.00
2018-03-26T01:31:33.867Z,0.00
2018-03-26T01:32:33.885Z,0.00
2018-03-26T01:33:34.180Z,0.00
2018-03-26T01:34:33.937Z,0.00
2018-03-26T01:35:33.949Z,0.00
2018-03-26T01:36:34.086Z,0.00
2018-03-26T01:37:33.978Z,0.00
2018-03-26T01:38:34.147Z,0.00
2018-03-26T01:39:34.023Z,0.00
2018-03-26T01:40:34.033Z,0.00
2018-03-26T01:41:34.178Z,0.00
2018-03-26T01:42:34.083Z,0.00
2018-03-26T01:43:34.102Z,0.00
2018-03-26T01:44:34.382Z,0.00
2018-03-26T01:45:34.129Z,0.00
2018-03-26T01:46:34.145Z,0.00
2018-03-26T01:47:34.289Z,0.00
2018-03-26T01:48:34.308Z,0.00
2018-03-26T01:49:34.305Z,0.00
2018-03-26T01:50:34.344Z,0.00
2018-03-26T01:51:34.236Z,0.00
2018-03-26T01:52:34.382Z,0.00
2018-03-26T01:53:34.273Z,0.00
2018-03-26T01:54:34.570Z,0.00
2018-03-26T01:55:34.439Z,0.00
2018-03-26T01:56:34.329Z,0.00
2018-03-26T01:57:34.471Z,0.00
2018-03-26T01:58:34.364Z,0.00
2018-03-26T01:59:34.661Z,0.00
2018-03-26T02:00:34.403Z,0.00
2018-03-26T02:01:34.427Z,0.00
2018-03-26T02:02:34.435Z,0.00
2018-03-26T02:03:34.583Z,0.00
2018-03-26T02:04:34.758Z,0.00
2018-03-26T02:05:34.650Z,0.00
2018-03-26T02:06:34.638Z,0.00
2018-03-26T02:07:34.530Z,0.00
2018-03-26T02:08:34.675Z,0.00
2018-03-26T02:09:34.570Z,0.00
2018-03-26T02:10:34.864Z,0.00
2018-03-26T02:11:34.605Z,0.00
2018-03-26T02:12:34.749Z,0.00
2018-03-26T02:13:34.641Z,0.00
2018-03-26T02:14:34.788Z,0.00
2018-03-26T02:15:34.780Z,0.00
2018-03-26T02:16:34.823Z,0.00
2018-03-26T02:17:34.717Z,0.00
2018-03-26T02:18:34.738Z,0.00
2018-03-26T02:19:34.767Z,0.00
2018-03-26T02:20:34.895Z,0.00
2018-03-26T02:21:34.952Z,0.00
2018-03-26T02:22:34.819Z,0.00
2018-03-26T02:23:34.829Z,0.00
2018-03-26T02:24:34.969Z,0.00
2018-03-26T02:25:34.875Z,0.00
2018-03-26T02:26:35.077Z,0.00
2018-03-26T02:27:34.906Z,0.00
2018-03-26T02:28:34.917Z,0.00
2018-03-26T02:29:34.944Z,0.00
2018-03-26T02:30:34.955Z,0.00
2018-03-26T02:31:35.081Z,0.00
2018-03-26T02:32:34.989Z,0.00
2018-03-26T02:33:35.017Z,0.00
2018-03-26T02:34:35.151Z,0.00
2018-03-26T02:35:35.046Z,0.00
2018-03-26T02:36:35.226Z,0.00
2018-03-26T02:37:35.086Z,0.00
2018-03-26T02:38:35.103Z,0.00
2018-03-26T02:39:35.130Z,0.00
2018-03-26T02:40:35.144Z,0.00
2018-03-26T02:41:35.433Z,0.00
2018-03-26T02:42:35.298Z,0.00
2018-03-26T02:43:35.318Z,0.00
2018-03-26T02:44:35.217Z,0.00
2018-03-26T02:45:35.352Z,0.00
2018-03-26T02:46:35.404Z,0.00
2018-03-26T02:47:35.263Z,0.00
2018-03-26T02:48:35.288Z,0.00
2018-03-26T02:49:35.425Z,0.00
2018-03-26T02:50:35.444Z,0.00
2018-03-26T02:51:35.484Z,0.00
2018-03-26T02:52:35.480Z,0.00
2018-03-26T02:53:35.501Z,0.00
2018-03-26T02:54:35.390Z,0.00
2018-03-26T02:55:35.533Z,0.00
2018-03-26T02:56:35.576Z,0.00
2018-03-26T02:57:35.571Z,0.00
2018-03-26T02:58:35.462Z,0.00
2018-03-26T02:59:35.607Z,0.00
2018-03-26T03:00:35.508Z,0.00
2018-03-26T03:01:35.625Z,0.00
2018-03-26T03:02:35.677Z,0.00
2018-03-26T03:03:35.555Z,0.00
2018-03-26T03:04:35.581Z,0.00
2018-03-26T03:05:35.591Z,0.00
2018-03-26T03:06:35.606Z,0.00
2018-03-26T03:07:35.781Z,0.00
2018-03-26T03:08:35.766Z,0.00
2018-03-26T03:09:35.789Z,0.00
2018-03-26T03:10:35.708Z,0.00
2018-03-26T03:11:35.714Z,0.00
2018-03-26T03:12:35.718Z,0.00
2018-03-26T03:13:36.010Z,0.00
2018-03-26T03:14:35.878Z,0.00
2018-03-26T03:15:35.766Z,0.00
2018-03-26T03:16:35.913Z,0.00
2018-03-26T03:17:35.928Z,0.00
2018-03-26T03:18:36.099Z,0.00
2018-03-26T03:19:35.965Z,0.00
2018-03-26T03:20:35.854Z,0.00
2018-03-26T03:21:35.880Z,0.00
2018-03-26T03:22:36.030Z,0.00
2018-03-26T03:23:36.187Z,0.00
2018-03-26T03:24:36.052Z,0.00
2018-03-26T03:25:36.070Z,0.00
2018-03-26T03:26:35.972Z,0.00
2018-03-26T03:27:35.994Z,0.00
2018-03-26T03:28:36.275Z,0.00
2018-03-26T03:29:36.030Z,0.00
2018-03-26T03:30:36.044Z,0.00
2018-03-26T03:31:36.055Z,0.00
2018-03-26T03:32:36.197Z,0.00
2018-03-26T03:33:36.363Z,0.00
2018-03-26T03:34:36.108Z,0.00
2018-03-26T03:35:36.123Z,0.00
2018-03-26T03:36:36.149Z,0.00
2018-03-26T03:37:36.158Z,0.00
2018-03-26T03:38:36.456Z,0.00
2018-03-26T03:39:36.207Z,0.00
2018-03-26T03:40:36.227Z,0.00
2018-03-26T03:41:36.357Z,0.00
2018-03-26T03:42:36.248Z,0.00
2018-03-26T03:43:36.416Z,0.00
2018-03-26T03:44:36.296Z,0.00
2018-03-26T03:45:36.309Z,0.00
2018-03-26T03:46:36.320Z,0.00
2018-03-26T03:47:36.465Z,0.00
2018-03-26T03:48:36.583Z,0.00
2018-03-26T03:49:36.499Z,0.00
2018-03-26T03:50:36.403Z,0.00
2018-03-26T03:51:36.534Z,0.00
2018-03-26T03:52:36.429Z,0.00
2018-03-26T03:53:36.592Z,0.00
2018-03-26T03:54:36.464Z,0.00
2018-03-26T03:55:36.486Z,0.00
2018-03-26T03:56:36.624Z,0.00
2018-03-26T03:57:36.640Z,0.00
2018-03-26T03:58:36.690Z,0.00
2018-03-26T03:59:36.677Z,0.00
2018-03-26T04:00:36.574Z,0.00
2018-03-26T04:01:36.584Z,0.00
2018-03-26T04:02:36.611Z,0.00
2018-03-26T04:03:36.631Z,0.00
2018-03-26T04:04:36.917Z,0.00
2018-03-26T04:05:36.669Z,0.00
2018-03-26T04:06:36.802Z,0.00
2018-03-26T04:07:36.703Z,0.00
2018-03-26T04:08:36.834Z,0.00
2018-03-26T04:09:36.724Z,0.00
2018-03-26T04:10:37.022Z,0.00
2018-03-26T04:11:36.763Z,0.00
2018-03-26T04:12:36.787Z,0.00
2018-03-26T04:13:36.797Z,0.00
2018-03-26T04:14:36.809Z,0.00
2018-03-26T04:15:37.110Z,0.00
2018-03-26T04:16:36.851Z,0.00
2018-03-26T04:17:36.996Z,0.00
2018-03-26T04:18:36.904Z,0.00
2018-03-26T04:19:36.919Z,0.00
2018-03-26T04:20:37.082Z,0.00
2018-03-26T04:21:36.946Z,0.00
2018-03-26T04:22:37.089Z,0.00
2018-03-26T04:23:36.987Z,0.00
2018-03-26T04:24:37.122Z,0.00
2018-03-26T04:25:37.173Z,0.00
2018-03-26T04:26:37.035Z,0.00
2018-03-26T04:27:37.051Z,0.00
2018-03-26T04:28:37.071Z,0.00
2018-03-26T04:29:37.082Z,0.00
2018-03-26T04:30:37.200Z,0.00
2018-03-26T04:31:37.126Z,0.00
2018-03-26T04:32:37.259Z,0.00
2018-03-26T04:33:37.160Z,0.00
2018-03-26T04:34:37.296Z,0.00
2018-03-26T04:35:37.295Z,0.00
2018-03-26T04:36:37.219Z,0.00
2018-03-26T04:37:37.231Z,0.00
2018-03-26T04:38:37.239Z,0.00
2018-03-26T04:39:37.387Z,0.00
2018-03-26T04:40:37.551Z,0.00
2018-03-26T04:41:37.424Z,0.00
2018-03-26T04:42:37.311Z,0.00
2018-03-26T04:43:37.336Z,0.00
2018-03-26T04:44:37.347Z,0.00
2018-03-26T04:45:37.591Z,0.00
2018-03-26T04:46:37.389Z,0.00
2018-03-26T04:47:37.393Z,0.00
2018-03-26T04:48:37.600Z,0.00
2018-03-26T04:49:37.562Z,0.00
2018-03-26T04:50:37.730Z,0.00
2018-03-26T04:51:37.596Z,0.00
2018-03-26T04:52:37.613Z,0.00
2018-03-26T04:53:37.631Z,0.00
2018-03-26T04:54:37.649Z,0.00
2018-03-26T04:55:37.672Z,0.00
2018-03-26T04:56:37.715Z,0.00
2018-03-26T04:57:37.575Z,0.00
2018-03-26T04:58:37.591Z,0.00
2018-03-26T04:59:37.623Z,0.00
2018-03-26T05:00:37.641Z,0.00
2018-03-26T05:01:37.795Z,0.00
2018-03-26T05:02:37.788Z,0.00
2018-03-26T05:03:37.689Z,0.00
2018-03-26T05:04:37.825Z,0.00
2018-03-26T05:05:37.842Z,0.00
2018-03-26T05:06:37.884Z,0.00
2018-03-26T05:07:37.760Z,0.00
2018-03-26T05:08:37.767Z,0.00
2018-03-26T05:09:37.795Z,0.00
2018-03-26T05:10:37.803Z,0.00
2018-03-26T05:11:37.826Z,0.00
2018-03-26T05:12:38.118Z,0.00
2018-03-26T05:13:37.987Z,0.00
2018-03-26T05:14:38.002Z,0.00
2018-03-26T05:15:37.896Z,0.00
2018-03-26T05:16:37.922Z,0.00
2018-03-26T05:17:38.081Z,0.00
2018-03-26T05:18:37.941Z,0.00
2018-03-26T05:19:37.974Z,0.00
2018-03-26T05:20:38.104Z,0.00
2018-03-26T05:21:38.004Z,0.00
2018-03-26T05:22:38.173Z,0.00
2018-03-26T05:23:38.159Z,0.00
2018-03-26T05:24:38.056Z,0.00
2018-03-26T05:25:38.068Z,0.00
2018-03-26T05:26:38.099Z,0.00
2018-03-26T05:27:38.379Z,0.00
2018-03-26T05:28:38.245Z,0.00
2018-03-26T05:29:38.140Z,0.00
2018-03-26T05:30:38.283Z,0.00
2018-03-26T05:31:38.186Z,0.00
2018-03-26T05:32:38.340Z,0.00
2018-03-26T05:33:38.216Z,0.00
2018-03-26T05:34:38.234Z,0.00
2018-03-26T05:35:38.368Z,0.00
2018-03-26T05:36:38.387Z,0.00
2018-03-26T05:37:38.376Z,0.00
2018-03-26T05:38:38.304Z,0.00
2018-03-26T05:39:38.326Z,0.00
2018-03-26T05:40:38.330Z,0.00
2018-03-26T05:41:38.361Z,0.00
2018-03-26T05:42:38.643Z,0.00
2018-03-26T05:43:38.395Z,0.00
2018-03-26T05:44:38.528Z,0.00
2018-03-26T05:45:38.431Z,0.00
2018-03-26T05:46:38.439Z,0.00
2018-03-26T05:47:38.603Z,0.00
2018-03-26T05:48:38.596Z,0.00
2018-03-26T05:49:38.488Z,0.00
2018-03-26T05:50:38.506Z,0.00
2018-03-26T05:51:38.531Z,0.00
2018-03-26T05:52:38.690Z,0.00
2018-03-26T05:53:38.565Z,0.00
2018-03-26T05:54:38.595Z,0.00
2018-03-26T05:55:38.592Z,0.00
2018-03-26T05:56:38.736Z,0.00
2018-03-26T05:57:38.734Z,0.00
2018-03-26T05:58:38.771Z,0.00
2018-03-26T05:59:38.789Z,0.00
2018-03-26T06:00:38.693Z,0.00
2018-03-26T06:01:38.700Z,0.00
2018-03-26T06:02:38.722Z,0.00
2018-03-26T06:03:39.011Z,0.00
2018-03-26T06:04:38.876Z,0.00
2018-03-26T06:05:38.766Z,0.00
2018-03-26T06:06:38.786Z,0.00
2018-03-26T06:07:38.813Z,0.00
2018-03-26T06:08:38.970Z,0.00
2018-03-26T06:09:38.845Z,0.00
2018-03-26T06:10:38.982Z,0.00
2018-03-26T06:11:38.999Z,0.00
2018-03-26T06:12:38.892Z,0.00
2018-03-26T06:13:39.183Z,0.00
2018-03-26T06:14:39.051Z,0.00
2018-03-26T06:15:39.070Z,0.00
2018-03-26T06:16:38.957Z,0.00
2018-03-26T06:17:39.105Z,0.00
2018-03-26T06:18:39.098Z,0.00
2018-03-26T06:19:39.018Z,0.00
2018-03-26T06:20:39.028Z,0.00
2018-03-26T06:21:39.173Z,0.00
2018-03-26T06:22:39.071Z,0.00
2018-03-26T06:23:39.197Z,0.00
2018-03-26T06:24:39.102Z,0.00
2018-03-26T06:25:39.131Z,0.00
2018-03-26T06:26:39.133Z,0.00
2018-03-26T06:27:39.277Z,0.00
2018-03-26T06:28:39.322Z,0.00
2018-03-26T06:29:39.312Z,0.00
2018-03-26T06:30:39.243Z,0.00
2018-03-26T06:31:39.219Z,0.00
2018-03-26T06:32:39.244Z,0.00
2018-03-26T06:33:39.403Z,0.00
2018-03-26T06:34:39.280Z,0.00
2018-03-26T06:35:39.303Z,0.00
2018-03-26T06:36:39.432Z,0.00
2018-03-26T06:37:39.336Z,0.00
2018-03-26T06:38:39.498Z,0.00
2018-03-26T06:39:39.487Z,0.00
2018-03-26T06:40:39.501Z,0.00
2018-03-26T06:41:39.395Z,0.00
2018-03-26T06:42:39.538Z,0.00
2018-03-26T06:43:39.653Z,0.00
2018-03-26T06:44:39.455Z,0.00
2018-03-26T06:45:39.589Z,0.00
2018-03-26T06:46:39.493Z,0.00
2018-03-26T06:47:39.505Z,0.00
2018-03-26T06:48:39.527Z,0.00
2018-03-26T06:49:39.694Z,0.00
2018-03-26T06:50:39.557Z,0.00
2018-03-26T06:51:39.571Z,0.00
2018-03-26T06:52:39.590Z,0.00
2018-03-26T06:53:39.599Z,0.00
2018-03-26T06:54:39.719Z,0.00
2018-03-26T06:55:39.644Z,0.00
2018-03-26T06:56:39.656Z,0.00
2018-03-26T06:57:39.676Z,0.00
2018-03-26T06:58:39.684Z,0.00
2018-03-26T06:59:39.818Z,0.00
2018-03-26T07:00:39.848Z,0.00
2018-03-26T07:01:39.735Z,0.00
2018-03-26T07:02:39.764Z,0.00
2018-03-26T07:03:39.771Z,0.00
2018-03-26T07:04:39.924Z,0.00
2018-03-26T07:05:40.083Z,0.00
2018-03-26T07:06:39.955Z,0.00
2018-03-26T07:07:39.977Z,0.00
2018-03-26T07:08:39.985Z,0.00
2018-03-26T07:09:39.877Z,0.00
2018-03-26T07:10:40.122Z,0.00
2018-03-26T07:11:39.909Z,0.00
2018-03-26T07:12:39.932Z,0.00
2018-03-26T07:13:39.953Z,0.00
2018-03-26T07:14:40.099Z,0.00
2018-03-26T07:15:40.136Z,0.00
2018-03-26T07:16:39.996Z,0.00
2018-03-26T07:17:40.020Z,0.00
2018-03-26T07:18:40.047Z,0.00
2018-03-26T07:19:40.061Z,0.00
2018-03-26T07:20:40.180Z,0.00
2018-03-26T07:21:40.093Z,0.00
2018-03-26T07:22:40.104Z,0.00
2018-03-26T07:23:40.248Z,0.00
2018-03-26T07:24:40.138Z,0.00
2018-03-26T07:25:40.431Z,0.00
2018-03-26T07:26:40.179Z,0.00
2018-03-26T07:27:40.190Z,0.00
2018-03-26T07:28:40.213Z,0.00
2018-03-26T07:29:40.225Z,0.00
2018-03-26T07:30:40.406Z,0.00
2018-03-26T07:31:40.273Z,0.00
2018-03-26T07:32:40.405Z,0.00
2018-03-26T07:33:40.293Z,0.00
2018-03-26T07:34:40.313Z,0.00
2018-03-26T07:35:40.559Z,0.00
2018-03-26T07:36:40.346Z,0.00
2018-03-26T07:37:40.498Z,0.00
2018-03-26T07:38:40.395Z,0.00
2018-03-26T07:39:40.526Z,0.00
2018-03-26T07:40:40.528Z,0.00
2018-03-26T07:41:40.432Z,0.00
2018-03-26T07:42:40.458Z,0.00
2018-03-26T07:43:40.481Z,0.00
2018-03-26T07:44:40.487Z,0.00
2018-03-26T07:45:40.612Z,0.00
2018-03-26T07:46:40.526Z,0.00
2018-03-26T07:47:40.539Z,0.00
2018-03-26T07:48:40.561Z,0.00
2018-03-26T07:49:40.571Z,0.00
2018-03-26T07:50:40.815Z,0.00
2018-03-26T07:51:40.608Z,0.00
2018-03-26T07:52:40.631Z,0.00
2018-03-26T07:53:40.641Z,0.00
2018-03-26T07:54:40.666Z,0.00
2018-03-26T07:55:40.675Z,0.00
2018-03-26T07:56:40.923Z,0.00
2018-03-26T07:57:40.834Z,0.00
2018-03-26T07:58:40.732Z,0.00
2018-03-26T07:59:40.748Z,0.00
2018-03-26T08:00:40.895Z,0.00
2018-03-26T08:01:40.893Z,0.00
2018-03-26T08:02:40.924Z,0.00
2018-03-26T08:03:40.940Z,0.00
2018-03-26T08:04:40.831Z,0.00
2018-03-26T08:06:41.092Z,0.00
2018-03-26T08:07:41.009Z,0.00
2018-03-26T08:08:40.915Z,0.00
2018-03-26T08:09:40.915Z,0.00
2018-03-26T08:10:41.063Z,0.00
2018-03-26T08:11:41.079Z,0.00
2018-03-26T08:12:41.066Z,0.00
2018-03-26T08:13:41.113Z,0.00
2018-03-26T08:14:41.019Z,0.00
2018-03-26T08:15:41.020Z,0.00
2018-03-26T08:16:41.045Z,0.00
2018-03-26T08:17:41.153Z,0.00
2018-03-26T08:18:41.077Z,0.00
2018-03-26T08:19:41.097Z,0.00
2018-03-26T08:20:41.110Z,0.00
2018-03-26T08:21:41.255Z,0.00
2018-03-26T08:22:41.369Z,0.00
2018-03-26T08:23:41.172Z,0.00
2018-03-26T08:24:41.189Z,0.00
2018-03-26T08:25:41.190Z,0.00
2018-03-26T08:26:41.337Z,0.00
2018-03-26T08:27:41.504Z,0.00
2018-03-26T08:28:41.251Z,0.00
2018-03-26T08:29:41.262Z,0.00
2018-03-26T08:30:41.406Z,0.00
2018-03-26T08:31:41.305Z,0.00
2018-03-26T08:32:41.415Z,0.00
2018-03-26T08:33:41.339Z,0.00
2018-03-26T08:34:41.360Z,0.00
2018-03-26T08:35:41.371Z,0.00
2018-03-26T08:36:41.508Z,0.00
2018-03-26T08:37:41.629Z,0.00
2018-03-26T08:38:41.543Z,0.00
2018-03-26T08:39:41.446Z,0.00
2018-03-26T08:40:41.576Z,0.00
2018-03-26T08:41:41.487Z,0.00
2018-03-26T08:42:41.594Z,0.00
2018-03-26T08:43:41.505Z,0.00
2018-03-26T08:44:41.528Z,0.00
2018-03-26T08:45:41.539Z,0.00
2018-03-26T08:46:41.550Z,0.00
2018-03-26T08:47:41.583Z,0.00
2018-03-26T08:48:41.820Z,0.00
2018-03-26T08:49:41.750Z,4.00
2018-03-26T08:50:41.801Z,0.00
2018-03-26T08:51:41.777Z,0.00
2018-03-26T08:52:41.667Z,4.00
2018-03-26T08:53:41.903Z,8.00
2018-03-26T08:54:41.708Z,4.00
2018-03-26T08:55:41.721Z,8.00
2018-03-26T08:56:41.734Z,12.00
2018-03-26T08:57:41.873Z,12.00
2018-03-26T08:58:41.865Z,20.00
2018-03-26T08:59:41.790Z,24.00
2018-03-26T09:00:41.800Z,28.00
2018-03-26T09:01:41.824Z,36.00
2018-03-26T09:02:41.842Z,44.00
2018-03-26T09:03:41.853Z,56.00
2018-03-26T09:04:42.097Z,68.00
2018-03-26T09:05:41.887Z,80.00
2018-03-26T09:06:41.918Z,92.00
2018-03-26T09:07:41.931Z,108.00
2018-03-26T09:08:42.065Z,124.00
2018-03-26T09:09:42.183Z,144.00
2018-03-26T09:10:42.103Z,168.00
2018-03-26T09:11:41.992Z,188.00
2018-03-26T09:12:42.017Z,212.00
2018-03-26T09:13:42.029Z,236.00
2018-03-26T09:14:42.323Z,260.00
2018-03-26T09:15:42.076Z,288.00
2018-03-26T09:16:42.208Z,324.00
2018-03-26T09:17:42.109Z,356.00
2018-03-26T09:18:42.126Z,388.00
2018-03-26T09:19:42.410Z,420.00
2018-03-26T09:20:42.165Z,460.00
2018-03-26T09:21:42.296Z,508.00
2018-03-26T09:22:42.185Z,564.00
2018-03-26T09:23:42.209Z,612.00
2018-03-26T09:24:42.445Z,676.00
2018-03-26T09:25:42.245Z,736.00
2018-03-26T09:26:42.256Z,804.00
2018-03-26T09:27:42.399Z,876.00
2018-03-26T09:28:42.416Z,952.00
2018-03-26T09:29:42.533Z,1040.00
2018-03-26T09:30:42.453Z,1120.00
2018-03-26T09:31:42.342Z,1208.00
2018-03-26T09:32:42.371Z,1308.00
2018-03-26T09:33:42.391Z,1432.00
2018-03-26T09:34:42.495Z,1564.00
2018-03-26T09:35:42.538Z,1704.00
2018-03-26T09:36:42.438Z,1852.00
2018-03-26T09:37:42.574Z,2012.00
2018-03-26T09:38:42.466Z,2180.00
2018-03-26T09:39:42.610Z,2372.00
2018-03-26T09:40:42.658Z,2572.00
2018-03-26T09:41:42.519Z,2768.00
2018-03-26T09:42:42.545Z,3284.00
2018-03-26T09:43:42.680Z,4828.00
2018-03-26T09:44:42.697Z,6944.00
2018-03-26T09:45:42.820Z,7828.00
2018-03-26T09:46:42.737Z,7376.00
2018-03-26T09:47:42.637Z,5272.00
2018-03-26T09:48:42.659Z,4636.00
2018-03-26T09:49:42.670Z,5016.00
2018-03-26T09:50:42.787Z,4868.00
2018-03-26T09:51:42.699Z,5068.00
2018-03-26T09:52:42.724Z,5312.00
2018-03-26T09:53:42.865Z,5588.00
2018-03-26T09:54:42.763Z,6644.00
2018-03-26T09:55:42.935Z,7320.00
2018-03-26T09:56:42.794Z,12060.00
2018-03-26T09:57:42.825Z,10044.00
2018-03-26T09:58:42.955Z,8060.00
2018-03-26T09:59:42.973Z,6856.00
2018-03-26T10:00:42.970Z,7224.00
2018-03-26T10:01:42.895Z,7216.00
2018-03-26T10:02:43.030Z,7144.00
2018-03-26T10:03:42.927Z,7012.00
2018-03-26T10:04:43.072Z,6904.00
2018-03-26T10:05:43.161Z,6752.00
2018-03-26T10:06:42.980Z,6684.00
2018-03-26T10:07:43.125Z,6580.00
2018-03-26T10:08:43.018Z,6548.00
2018-03-26T10:09:43.163Z,6492.00
2018-03-26T10:10:43.147Z,6348.00
2018-03-26T10:11:43.089Z,6096.00
2018-03-26T10:12:43.105Z,5816.00
2018-03-26T10:13:43.251Z,5492.00
2018-03-26T10:14:43.262Z,5160.00
2018-03-26T10:15:43.333Z,4724.00
2018-03-26T10:16:43.169Z,4328.00
2018-03-26T10:17:43.317Z,4196.00
2018-03-26T10:18:43.209Z,4176.00
2018-03-26T10:19:43.245Z,4140.00
2018-03-26T10:20:43.348Z,4084.00
2018-03-26T10:21:43.276Z,3976.00
2018-03-26T10:22:43.301Z,3908.00
2018-03-26T10:23:43.318Z,3868.00
2018-03-26T10:24:43.449Z,3760.00
2018-03-26T10:25:43.359Z,3772.00
2018-03-26T10:26:43.519Z,3748.00
2018-03-26T10:27:43.383Z,3844.00
2018-03-26T10:28:43.527Z,3976.00
2018-03-26T10:29:43.545Z,4276.00
2018-03-26T10:30:43.447Z,4748.00
2018-03-26T10:31:43.738Z,5388.00
2018-03-26T10:32:43.485Z,5956.00
2018-03-26T10:33:43.494Z,6256.00
2018-03-26T10:34:43.641Z,6324.00
2018-03-26T10:35:43.534Z,6384.00
2018-03-26T10:36:43.683Z,6504.00
2018-03-26T10:37:43.799Z,6980.00
2018-03-26T10:38:43.604Z,7060.00
2018-03-26T10:39:43.737Z,6760.00
2018-03-26T10:40:43.756Z,6340.00
2018-03-26T10:41:43.649Z,6344.00
2018-03-26T10:42:43.897Z,6096.00
2018-03-26T10:43:43.692Z,6436.00
2018-03-26T10:44:43.708Z,6692.00
2018-03-26T10:45:43.854Z,7072.00
2018-03-26T10:46:43.872Z,7636.00
2018-03-26T10:47:44.047Z,7696.00
2018-03-26T10:48:43.791Z,7740.00
2018-03-26T10:49:43.930Z,8036.00
2018-03-26T10:50:43.823Z,8348.00
2018-03-26T10:51:43.851Z,8456.00
2018-03-26T10:52:43.960Z,8208.00
2018-03-26T10:53:43.894Z,7836.00
2018-03-26T10:54:43.918Z,7612.00
2018-03-26T10:55:43.922Z,7440.00
2018-03-26T10:56:44.066Z,7240.00
2018-03-26T10:57:44.059Z,7196.00
2018-03-26T10:58:43.986Z,7160.00
2018-03-26T10:59:44.011Z,7084.00
2018-03-26T11:00:44.016Z,7108.00
2018-03-26T11:01:44.037Z,7148.00
2018-03-26T11:02:44.162Z,7192.00
2018-03-26T11:03:44.074Z,7368.00
2018-03-26T11:04:44.232Z,7492.00
2018-03-26T11:05:44.157Z,7596.00
2018-03-26T11:06:44.265Z,7664.00
2018-03-26T11:07:44.257Z,7672.00
2018-03-26T11:08:44.177Z,8008.00
2018-03-26T11:09:44.197Z,8756.00
2018-03-26T11:10:44.216Z,25344.00
2018-03-26T11:11:44.245Z,8224.00
2018-03-26T11:12:44.357Z,7616.00
2018-03-26T11:13:44.402Z,8016.00
2018-03-26T11:14:44.315Z,8416.00
2018-03-26T11:15:44.320Z,8856.00
2018-03-26T11:16:44.461Z,9380.00
2018-03-26T11:17:44.582Z,9712.00
2018-03-26T11:18:44.376Z,9400.00
2018-03-26T11:19:44.403Z,9108.00
2018-03-26T11:20:44.542Z,8308.00
2018-03-26T11:21:44.562Z,7404.00
2018-03-26T11:22:44.680Z,7004.00
2018-03-26T11:23:44.484Z,6620.00
2018-03-26T11:24:44.618Z,6456.00
2018-03-26T11:25:44.510Z,6364.00
2018-03-26T11:26:44.540Z,6348.00
2018-03-26T11:27:44.780Z,6464.00
2018-03-26T11:28:44.700Z,6620.00
2018-03-26T11:29:44.603Z,6540.00
2018-03-26T11:30:44.619Z,6448.00
2018-03-26T11:31:44.631Z,6256.00
2018-03-26T11:32:44.757Z,6396.00
2018-03-26T11:33:44.676Z,6556.00
2018-03-26T11:34:44.695Z,6740.00
2018-03-26T11:35:44.835Z,8312.00
2018-03-26T11:36:44.853Z,21568.00
2018-03-26T11:37:44.847Z,8040.00
2018-03-26T11:38:44.780Z,8584.00
2018-03-26T11:39:44.912Z,8680.00
2018-03-26T11:40:44.937Z,8808.00
2018-03-26T11:41:44.839Z,9264.00
2018-03-26T11:42:44.954Z,9528.00
2018-03-26T11:43:44.873Z,10212.00
2018-03-26T11:44:44.880Z,11524.00
2018-03-26T11:45:44.904Z,64512.00
2018-03-26T11:46:44.920Z,98944.00
2018-03-26T11:47:45.166Z,108608.00
2018-03-26T11:48:44.959Z,53216.00
2018-03-26T11:49:45.001Z,91808.00
2018-03-26T11:50:45.123Z,98560.00
2018-03-26T11:51:45.143Z,112672.00
2018-03-26T11:52:45.139Z,118784.00
2018-03-26T11:53:45.184Z,110240.00
2018-03-26T11:54:45.084Z,95584.00
2018-03-26T11:55:45.100Z,60544.00
2018-03-26T11:56:45.125Z,20896.00
2018-03-26T11:57:45.291Z,21440.00
2018-03-26T11:58:45.166Z,30400.00
2018-03-26T11:59:45.182Z,27648.00
2018-03-26T12:00:45.328Z,30304.00
2018-03-26T12:01:45.350Z,57120.00
2018-03-26T12:02:45.405Z,35392.00
2018-03-26T12:03:45.393Z,25024.00
2018-03-26T12:04:45.299Z,24960.00
2018-03-26T12:05:45.315Z,23584.00
2018-03-26T12:06:45.336Z,27328.00
2018-03-26T12:07:45.579Z,30208.00
2018-03-26T12:08:45.371Z,63424.00
2018-03-26T12:09:45.517Z,38816.00
2018-03-26T12:10:45.543Z,50400.00
2018-03-26T12:11:45.560Z,51648.00
2018-03-26T12:12:45.556Z,49664.00
2018-03-26T12:13:45.486Z,68672.00
2018-03-26T12:14:45.507Z,16448.00
2018-03-26T12:15:45.651Z,47648.00
2018-03-26T12:16:45.539Z,33024.00
2018-03-26T12:17:45.790Z,31264.00
2018-03-26T12:18:45.606Z,26752.00
2018-03-26T12:19:45.645Z,27616.00
2018-03-26T12:20:45.757Z,24544.00
2018-03-26T12:21:45.777Z,24864.00
2018-03-26T12:22:45.831Z,25696.00
2018-03-26T12:23:45.698Z,34336.00
2018-03-26T12:24:45.844Z,24096.00
2018-03-26T12:25:45.869Z,22336.00
2018-03-26T12:26:45.771Z,41824.00
2018-03-26T12:27:46.011Z,54080.00
2018-03-26T12:28:45.932Z,19040.00
2018-03-26T12:29:45.836Z,17592.00
2018-03-26T12:30:45.862Z,17200.00
2018-03-26T12:31:45.878Z,17144.00
2018-03-26T12:32:46.224Z,17856.00
2018-03-26T12:33:45.920Z,23616.00
2018-03-26T12:34:45.939Z,27648.00
2018-03-26T12:35:45.969Z,28416.00
2018-03-26T12:36:45.984Z,23808.00
2018-03-26T12:37:46.108Z,28288.00
2018-03-26T12:38:46.157Z,28992.00
2018-03-26T12:39:46.175Z,47616.00
2018-03-26T12:40:46.195Z,22880.00
2018-03-26T12:41:46.095Z,37216.00
2018-03-26T12:42:46.222Z,32192.00
2018-03-26T12:43:46.262Z,23040.00
2018-03-26T12:44:46.177Z,27136.00
2018-03-26T12:45:46.305Z,17536.00
2018-03-26T12:46:46.217Z,18432.00
2018-03-26T12:47:46.501Z,20640.00
2018-03-26T12:48:46.249Z,18400.00
2018-03-26T12:49:46.282Z,19488.00
2018-03-26T12:50:46.419Z,20960.00
2018-03-26T12:51:46.444Z,23360.00
2018-03-26T12:52:46.444Z,98848.00
2018-03-26T12:53:46.359Z,92928.00
2018-03-26T12:54:46.392Z,73312.00